sensor_id;sensor_type;location;lat;lon;timestamp;P1;durP1;ratioP1;P2;durP2;ratioP2
63398;SDS011;49533;-34.520;150.798;2022-11-23T05:34:11;0.40;;;0.10;;
63398;SDS011;49533;-34.520;150.798;2022-11-23T05:36:40;0.90;;;0.10;;
63398;SDS011;49533;-34.520;150.798;2022-11-23T05:39:09;0.10;;;0.03;;
63398;SDS011;49533;-34.520;150.798;2022-11-23T05:41:37;0.30;;;0.20;;
63398;SDS011;49533;-34.520;150.798;2022-11-23T05:44:05;1.90;;;0.30;;
63398;SDS011;49533;-34.520;150.798;2022-11-23T05:46:33;0.30;;;0.17;;
63398;SDS011;49533;-34.520;150.798;2022-11-23T05:49:01;0.70;;;0.10;;
63398;SDS011;49533;-34.520;150.798;2022-11-23T05:51:29;0.90;;;0.20;;
63398;SDS011;49533;-34.520;150.798;2022-11-23T05:53:57;0.80;;;0.30;;
63398;SDS011;49533;-34.520;150.798;2022-11-23T05:56:27;1.73;;;0.10;;
63398;SDS011;49533;-34.520;150.798;2022-11-23T06:01:22;0.77;;;0.20;;
63398;SDS011;49533;-34.520;150.798;2022-11-23T06:03:50;1.08;;;0.13;;
63398;SDS011;49533;-34.520;150.798;2022-11-23T06:06:18;0.10;;;0.10;;
63398;SDS011;49533;-34.520;150.798;2022-11-23T06:08:46;0.25;;;0.17;;
63398;SDS011;49533;-34.520;150.798;2022-11-23T06:11:14;2.85;;;0.30;;
63398;SDS011;49533;-34.520;150.798;2022-11-23T06:13:45;0.30;;;0.10;;
63398;SDS011;49533;-34.520;150.798;2022-11-23T06:16:13;0.30;;;0.20;;
63398;SDS011;49533;-34.520;150.798;2022-11-23T06:18:41;0.13;;;0.00;;
63398;SDS011;49533;-34.520;150.798;2022-11-23T06:21:09;0.15;;;0.10;;
63398;SDS011;49533;-34.520;150.798;2022-11-23T06:23:37;0.30;;;0.00;;
63398;SDS011;49533;-34.520;150.798;2022-11-23T06:26:05;0.40;;;0.10;;
63398;SDS011;49533;-34.520;150.798;2022-11-23T06:28:33;0.22;;;0.20;;
63398;SDS011;49533;-34.520;150.798;2022-11-23T06:31:03;1.15;;;0.13;;
63398;SDS011;49533;-34.520;150.798;2022-11-23T06:33:33;0.30;;;0.00;;
63398;SDS011;49533;-34.520;150.798;2022-11-23T06:36:01;1.60;;;0.28;;
63398;SDS011;49533;-34.520;150.798;2022-11-23T06:38:31;1.15;;;0.00;;
63398;SDS011;49533;-34.520;150.798;2022-11-23T06:41:00;0.40;;;0.10;;
63398;SDS011;49533;-34.520;150.798;2022-11-23T06:43:28;2.53;;;0.20;;
63398;SDS011;49533;-34.520;150.798;2022-11-23T06:45:56;0.28;;;0.10;;
63398;SDS011;49533;-34.520;150.798;2022-11-23T06:48:24;0.17;;;0.00;;
63398;SDS011;49533;-34.520;150.798;2022-11-23T06:50:56;0.32;;;0.15;;
63398;SDS011;49533;-34.520;150.798;2022-11-23T06:53:25;2.65;;;0.20;;
63398;SDS011;49533;-34.520;150.798;2022-11-23T06:55:58;0.40;;;0.32;;
63398;SDS011;49533;-34.520;150.798;2022-11-23T06:58:26;0.20;;;0.20;;
63398;SDS011;49533;-34.520;150.798;2022-11-23T07:00:58;0.13;;;0.10;;
63398;SDS011;49533;-34.520;150.798;2022-11-23T07:03:29;0.00;;;0.00;;
63398;SDS011;49533;-34.520;150.798;2022-11-23T07:05:57;0.30;;;0.10;;
63398;SDS011;49533;-34.520;150.798;2022-11-23T07:08:25;0.47;;;0.22;;
63398;SDS011;49533;-34.520;150.798;2022-11-23T07:13:25;0.57;;;0.15;;
63398;SDS011;49533;-34.520;150.798;2022-11-23T07:15:54;0.52;;;0.13;;
63398;SDS011;49533;-34.520;150.798;2022-11-23T07:18:24;0.57;;;0.10;;
63398;SDS011;49533;-34.520;150.798;2022-11-23T07:20:53;0.40;;;0.20;;
63398;SDS011;49533;-34.520;150.798;2022-11-23T07:23:24;0.00;;;0.00;;
63398;SDS011;49533;-34.520;150.798;2022-11-23T07:25:52;1.40;;;0.10;;
63398;SDS011;49533;-34.520;150.798;2022-11-23T07:28:20;2.03;;;0.20;;
63398;SDS011;49533;-34.520;150.798;2022-11-23T07:30:49;0.20;;;0.10;;
63398;SDS011;49533;-34.520;150.798;2022-11-23T07:33:17;0.45;;;0.20;;
63398;SDS011;49533;-34.520;150.798;2022-11-23T07:43:09;0.00;;;0.00;;
63398;SDS011;49533;-34.520;150.798;2022-11-23T07:45:37;0.60;;;0.17;;
63398;SDS011;49533;-34.520;150.798;2022-11-23T09:54:04;0.32;;;0.05;;
63398;SDS011;49533;-34.520;150.798;2022-11-23T09:56:42;0.35;;;0.20;;
63398;SDS011;49533;-34.520;150.798;2022-11-23T09:59:20;2.00;;;0.10;;
63398;SDS011;49533;-34.520;150.798;2022-11-23T10:01:57;2.67;;;0.20;;
63398;SDS011;49533;-34.520;150.798;2022-11-23T10:04:28;0.32;;;0.00;;
63398;SDS011;49533;-34.520;150.798;2022-11-23T10:09:56;0.32;;;0.25;;
63398;SDS011;49533;-34.520;150.798;2022-11-23T10:12:49;0.32;;;0.10;;
63398;SDS011;49533;-34.520;150.798;2022-11-23T10:18:41;1.98;;;0.20;;
63398;SDS011;49533;-34.520;150.798;2022-11-23T10:21:36;0.80;;;0.10;;
63398;SDS011;49533;-34.520;150.798;2022-11-23T10:24:18;1.58;;;0.40;;
63398;SDS011;49533;-34.520;150.798;2022-11-23T10:26:53;2.20;;;0.73;;
63398;SDS011;49533;-34.520;150.798;2022-11-23T10:29:27;0.90;;;0.15;;
63398;SDS011;49533;-34.520;150.798;2022-11-23T10:32:01;2.05;;;0.38;;
63398;SDS011;49533;-34.520;150.798;2022-11-23T10:34:41;1.83;;;0.47;;
63398;SDS011;49533;-34.520;150.798;2022-11-23T10:37:22;2.05;;;0.88;;
63398;SDS011;49533;-34.520;150.798;2022-11-23T10:39:50;1.75;;;0.43;;
63398;SDS011;49533;-34.520;150.798;2022-11-23T10:42:23;1.25;;;0.50;;
63398;SDS011;49533;-34.520;150.798;2022-11-23T10:45:00;1.55;;;0.40;;
63398;SDS011;49533;-34.520;150.798;2022-11-23T10:47:33;1.13;;;0.50;;
63398;SDS011;49533;-34.520;150.798;2022-11-23T10:50:20;2.33;;;1.00;;
63398;SDS011;49533;-34.520;150.798;2022-11-23T10:52:53;1.08;;;0.65;;
63398;SDS011;49533;-34.520;150.798;2022-11-23T10:55:25;2.28;;;0.90;;
63398;SDS011;49533;-34.520;150.798;2022-11-23T10:57:56;3.55;;;0.95;;
63398;SDS011;49533;-34.520;150.798;2022-11-23T11:00:26;2.65;;;0.80;;
63398;SDS011;49533;-34.520;150.798;2022-11-23T11:02:55;2.70;;;0.85;;
63398;SDS011;49533;-34.520;150.798;2022-11-23T11:05:27;2.65;;;0.82;;
63398;SDS011;49533;-34.520;150.798;2022-11-23T11:08:11;5.45;;;1.20;;
63398;SDS011;49533;-34.520;150.798;2022-11-23T11:10:45;3.75;;;0.88;;
63398;SDS011;49533;-34.520;150.798;2022-11-23T11:13:21;3.42;;;1.02;;
63398;SDS011;49533;-34.520;150.798;2022-11-23T11:15:59;3.92;;;1.50;;
63398;SDS011;49533;-34.520;150.798;2022-11-23T11:18:31;2.20;;;1.20;;
63398;SDS011;49533;-34.520;150.798;2022-11-23T11:21:05;5.75;;;1.40;;
63398;SDS011;49533;-34.520;150.798;2022-11-23T11:23:54;3.20;;;1.25;;
63398;SDS011;49533;-34.520;150.798;2022-11-23T11:26:31;4.88;;;1.23;;
63398;SDS011;49533;-34.520;150.798;2022-11-23T11:29:02;4.53;;;1.50;;
63398;SDS011;49533;-34.520;150.798;2022-11-23T11:34:23;3.63;;;0.90;;
63398;SDS011;49533;-34.520;150.798;2022-11-23T11:39:54;2.55;;;1.10;;
63398;SDS011;49533;-34.520;150.798;2022-11-23T11:42:37;2.47;;;1.42;;
63398;SDS011;49533;-34.520;150.798;2022-11-23T11:45:20;2.60;;;1.27;;
63398;SDS011;49533;-34.520;150.798;2022-11-23T11:47:58;3.28;;;1.10;;
63398;SDS011;49533;-34.520;150.798;2022-11-23T11:50:35;2.67;;;1.00;;
63398;SDS011;49533;-34.520;150.798;2022-11-23T11:53:16;3.47;;;1.38;;
63398;SDS011;49533;-34.520;150.798;2022-11-23T11:55:52;4.70;;;1.65;;
63398;SDS011;49533;-34.520;150.798;2022-11-23T12:00:55;4.45;;;1.60;;
63398;SDS011;49533;-34.520;150.798;2022-11-23T12:03:47;3.85;;;1.63;;
63398;SDS011;49533;-34.520;150.798;2022-11-23T12:06:26;3.92;;;1.50;;
63398;SDS011;49533;-34.520;150.798;2022-11-23T12:09:00;3.17;;;1.42;;
63398;SDS011;49533;-34.520;150.798;2022-11-23T12:11:42;3.40;;;1.25;;
63398;SDS011;49533;-34.520;150.798;2022-11-23T12:14:11;7.07;;;1.65;;
63398;SDS011;49533;-34.520;150.798;2022-11-23T12:16:56;8.18;;;1.50;;
63398;SDS011;49533;-34.520;150.798;2022-11-23T12:19:34;5.90;;;1.25;;
63398;SDS011;49533;-34.520;150.798;2022-11-23T12:22:23;2.63;;;1.20;;
63398;SDS011;49533;-34.520;150.798;2022-11-23T12:25:07;3.08;;;1.15;;
63398;SDS011;49533;-34.520;150.798;2022-11-23T12:28:08;3.17;;;1.52;;
63398;SDS011;49533;-34.520;150.798;2022-11-23T12:31:13;5.82;;;1.40;;
63398;SDS011;49533;-34.520;150.798;2022-11-23T12:39:56;4.18;;;1.35;;
63398;SDS011;49533;-34.520;150.798;2022-11-23T12:42:49;3.30;;;1.17;;
63398;SDS011;49533;-34.520;150.798;2022-11-23T12:45:25;5.57;;;1.55;;
63398;SDS011;49533;-34.520;150.798;2022-11-23T12:51:26;4.93;;;1.25;;
63398;SDS011;49533;-34.520;150.798;2022-11-23T12:56:56;5.43;;;1.55;;
63398;SDS011;49533;-34.520;150.798;2022-11-23T12:59:39;3.22;;;1.35;;
63398;SDS011;49533;-34.520;150.798;2022-11-23T13:02:25;4.95;;;1.17;;
63398;SDS011;49533;-34.520;150.798;2022-11-23T13:05:23;3.53;;;1.35;;
63398;SDS011;49533;-34.520;150.798;2022-11-23T13:08:19;3.30;;;1.80;;
63398;SDS011;49533;-34.520;150.798;2022-11-23T13:14:02;4.85;;;1.27;;
63398;SDS011;49533;-34.520;150.798;2022-11-23T13:22:38;3.78;;;1.25;;
63398;SDS011;49533;-34.520;150.798;2022-11-23T13:25:21;4.60;;;1.70;;
63398;SDS011;49533;-34.520;150.798;2022-11-23T13:27:54;2.75;;;1.08;;
63398;SDS011;49533;-34.520;150.798;2022-11-23T13:30:30;3.67;;;1.80;;
63398;SDS011;49533;-34.520;150.798;2022-11-23T13:33:02;4.85;;;1.80;;
63398;SDS011;49533;-34.520;150.798;2022-11-23T13:35:55;3.00;;;1.30;;
63398;SDS011;49533;-34.520;150.798;2022-11-23T13:40:53;4.88;;;1.63;;
63398;SDS011;49533;-34.520;150.798;2022-11-23T13:43:23;4.97;;;1.77;;
63398;SDS011;49533;-34.520;150.798;2022-11-23T13:48:49;3.78;;;1.33;;
63398;SDS011;49533;-34.520;150.798;2022-11-23T13:51:26;1.83;;;1.13;;
63398;SDS011;49533;-34.520;150.798;2022-11-23T13:54:05;5.78;;;1.70;;
63398;SDS011;49533;-34.520;150.798;2022-11-23T13:56:55;4.20;;;1.38;;
63398;SDS011;49533;-34.520;150.798;2022-11-23T13:59:30;4.47;;;1.60;;
63398;SDS011;49533;-34.520;150.798;2022-11-23T14:04:51;4.28;;;1.33;;
63398;SDS011;49533;-34.520;150.798;2022-11-23T14:07:39;3.65;;;1.52;;
63398;SDS011;49533;-34.520;150.798;2022-11-23T14:10:18;4.70;;;1.42;;
63398;SDS011;49533;-34.520;150.798;2022-11-23T14:12:54;2.60;;;1.02;;
63398;SDS011;49533;-34.520;150.798;2022-11-23T14:15:34;3.33;;;1.10;;
63398;SDS011;49533;-34.520;150.798;2022-11-23T14:18:11;4.65;;;1.20;;
63398;SDS011;49533;-34.520;150.798;2022-11-23T14:21:06;4.07;;;1.65;;
63398;SDS011;49533;-34.520;150.798;2022-11-23T14:26:51;4.35;;;1.80;;
63398;SDS011;49533;-34.520;150.798;2022-11-23T14:29:49;3.22;;;1.52;;
63398;SDS011;49533;-34.520;150.798;2022-11-23T14:32:26;2.85;;;1.17;;
63398;SDS011;49533;-34.520;150.798;2022-11-23T14:35:23;5.25;;;1.42;;
63398;SDS011;49533;-34.520;150.798;2022-11-23T14:41:07;2.95;;;1.27;;
63398;SDS011;49533;-34.520;150.798;2022-11-23T14:43:45;5.15;;;1.45;;
63398;SDS011;49533;-34.520;150.798;2022-11-23T14:46:15;4.43;;;1.40;;
63398;SDS011;49533;-34.520;150.798;2022-11-23T14:48:46;3.15;;;1.48;;
63398;SDS011;49533;-34.520;150.798;2022-11-23T14:51:15;4.35;;;1.70;;
63398;SDS011;49533;-34.520;150.798;2022-11-23T14:53:48;1.95;;;1.20;;
63398;SDS011;49533;-34.520;150.798;2022-11-23T14:56:27;2.15;;;1.20;;
63398;SDS011;49533;-34.520;150.798;2022-11-23T14:59:03;4.28;;;2.08;;
63398;SDS011;49533;-34.520;150.798;2022-11-23T15:01:35;4.70;;;1.30;;
63398;SDS011;49533;-34.520;150.798;2022-11-23T15:04:09;2.88;;;1.38;;
63398;SDS011;49533;-34.520;150.798;2022-11-23T15:06:49;2.80;;;1.33;;
63398;SDS011;49533;-34.520;150.798;2022-11-23T15:09:29;2.97;;;1.20;;
63398;SDS011;49533;-34.520;150.798;2022-11-23T15:12:17;3.10;;;1.48;;
63398;SDS011;49533;-34.520;150.798;2022-11-23T15:14:49;4.40;;;1.65;;
63398;SDS011;49533;-34.520;150.798;2022-11-23T15:17:19;5.13;;;1.50;;
63398;SDS011;49533;-34.520;150.798;2022-11-23T15:19:53;3.28;;;1.00;;
63398;SDS011;49533;-34.520;150.798;2022-11-23T15:22:25;3.35;;;0.95;;
63398;SDS011;49533;-34.520;150.798;2022-11-23T15:25:03;3.38;;;1.15;;
63398;SDS011;49533;-34.520;150.798;2022-11-23T15:27:35;4.05;;;1.60;;
63398;SDS011;49533;-34.520;150.798;2022-11-23T15:30:13;5.57;;;1.83;;
63398;SDS011;49533;-34.520;150.798;2022-11-23T15:32:53;7.97;;;1.83;;
63398;SDS011;49533;-34.520;150.798;2022-11-23T15:35:28;2.65;;;1.27;;
63398;SDS011;49533;-34.520;150.798;2022-11-23T15:37:59;3.13;;;1.30;;
63398;SDS011;49533;-34.520;150.798;2022-11-23T15:40:30;5.20;;;1.50;;
63398;SDS011;49533;-34.520;150.798;2022-11-23T15:43:01;4.07;;;1.33;;
63398;SDS011;49533;-34.520;150.798;2022-11-23T15:45:31;3.10;;;1.17;;
63398;SDS011;49533;-34.520;150.798;2022-11-23T15:48:03;6.72;;;1.75;;
63398;SDS011;49533;-34.520;150.798;2022-11-23T15:50:46;3.88;;;1.52;;
63398;SDS011;49533;-34.520;150.798;2022-11-23T15:53:17;4.00;;;1.27;;
63398;SDS011;49533;-34.520;150.798;2022-11-23T15:55:51;3.00;;;1.30;;
63398;SDS011;49533;-34.520;150.798;2022-11-23T15:58:23;4.95;;;1.70;;
63398;SDS011;49533;-34.520;150.798;2022-11-23T16:01:00;2.38;;;1.20;;
63398;SDS011;49533;-34.520;150.798;2022-11-23T16:03:47;4.35;;;1.67;;
63398;SDS011;49533;-34.520;150.798;2022-11-23T16:06:22;4.32;;;1.67;;
63398;SDS011;49533;-34.520;150.798;2022-11-23T16:08:54;5.35;;;1.85;;
63398;SDS011;49533;-34.520;150.798;2022-11-23T16:11:27;5.95;;;1.50;;
63398;SDS011;49533;-34.520;150.798;2022-11-23T16:16:39;2.67;;;1.15;;
63398;SDS011;49533;-34.520;150.798;2022-11-23T16:19:18;3.22;;;1.52;;
63398;SDS011;49533;-34.520;150.798;2022-11-23T16:29:21;5.80;;;1.95;;
63398;SDS011;49533;-34.520;150.798;2022-11-23T16:31:59;3.40;;;1.15;;
63398;SDS011;49533;-34.520;150.798;2022-11-23T16:34:31;3.92;;;1.30;;
63398;SDS011;49533;-34.520;150.798;2022-11-23T16:37:00;3.95;;;1.40;;
